Tiempo atmosférico en la estación meteorológica de Los Tojos, Bárcena Mayor, Cantabria (455 m.)



Fecha
DESCASC
Temp. máxima en grados centígrados (hora)
DESCASC
Temp. mínima en grados centígrados (hora)
DESCASC
Temp. media en grados centígrados
DESCASC
Racha de viento máxima en m/sg (hora)
DESCASC
Velocidad máxima media en intervalos de 10 minutos(hora)
DESCASC
Precipitaciones diarias en mm
DESCASC
Precipitaciones de 00:00 a 06:00 en mm
DESCASC
Precipitaciones de 06:00 a 12:00 en mm
DESCASC
Precipitaciones de 12:00 a 18:00 en mm
DESCASC
Precipitaciones de 18:00 a 24:00 en mm
DESCASC
18-01-2019 8.4 (16:20) -0.7 (04:00) 3.8 4.17 (14:00) 2.22 (14:00) 0.8 0 0 0 0.8
17-01-2019 9.7 (14:50) 2.3 (00:00) 6 7.78 (16:20) 4.72 (16:20) 4 3.4 0.4 0.2 0
16-01-2019 11 (14:50) -2.6 (-00:0) 4.2 3.89 (13:10) 1.67 (12:50) 0 0 0 0 0
15-01-2019 10.7 (14:50) -2.8 (-00:0) 3.9 4.17 (14:40) 1.94 (14:40) 0 0 0 0 0
14-01-2019 9.9 (14:20) -0.8 (-00:0) 4.5 4.17 (12:50) 2.22 (12:50) 0 0 0 0 0
13-01-2019 10.7 (14:40) 1.8 (00:00) 6.2 4.72 (13:40) 2.22 (13:20) 0 0 0 0 0
12-01-2019 8.1 (14:20) 2.1 (00:00) 5.1 6.39 (15:10) 3.06 (15:10) 0.8 0.4 0.2 0.2 0
11-01-2019 5.9 (15:20) -0.6 (-00:0) 2.7 5.28 (15:50) 2.22 (14:30) 0.2 0 0 0 0.2
10-01-2019 5.9 (13:50) -0.8 (-00:0) 2.6 8.33 (14:00) 4.44 (14:00) 3.8 3 0.8 0 0
09-01-2019 7.6 (11:20) 4.1 (00:00) 5.8 8.06 (17:10) 4.72 (13:30) 13 4 5 0.8 3.2
08-01-2019 9.2 (14:30) -3.3 (-00:0) 2.9 3.89 (16:10) 1.67 (15:30) 0 0 0 0 0
07-01-2019 6.8 (14:30) -1.7 (-00:0) 2.6 4.44 (14:40) 2.5 (14:50) 0 0 0 0 0
06-01-2019 9.2 (15:00) -5.8 (-00:0) 1.7 5 (15:40) 2.22 (15:30) 0 0 0 0 0
05-01-2019 11.6 (14:20) -4.7 (-00:0) 3.5 3.61 (14:50) 1.67 (16:20) 0 0 0 0 0
04-01-2019 9.7 (14:30) -5.7 (-00:0) 2 4.17 (15:30) 1.94 (15:40) 0 0 0 0 0
03-01-2019 9.4 (14:40) -3.9 (-00:0) 2.7 4.44 (13:40) 2.5 (15:00) 0 0 0 0 0
02-01-2019 7.6 (15:20) 2.1 (00:00) 4.8 4.44 (16:00) 2.22 (16:00) 0 0 0 0 0
01-01-2019 12 (13:50) -1.6 (-00:0) 5.2 6.11 (14:50) 3.33 (14:40) 0 0 0 0 0
31-12-2018 13.6 (14:00) -1.5 (-00:0) 6.1 3.33 (14:10) 1.39 (13:40) 0 0 0 0 0
30-12-2018 9.5 (13:30) -3.1 (-00:0) 3.2 3.06 (13:20) 1.39 (13:20) 0 0 0 0 0
29-12-2018 11.8 (14:50) -0.2 (00:00) 5.8 5.28 (02:10) 2.5 (02:10) 0 0 0 0 0
28-12-2018 9.6 (18:20) -0.7 (-00:0) 4.5 4.44 (23:00) 1.94 (18:00) 4.4 0 0.2 3.2 1
27-12-2018 12.8 (14:00) -1.4 (-00:0) 5.7 1.67 (15:40) 1.11 (15:40) 0 0 0 0 0
26-12-2018 15.3 (14:20) -0.2 (00:00) 7.6 4.72 (13:40) 2.22 (14:00) 0 0 0 0 0
25-12-2018 15.4 (13:30) 1.5 (00:00) 8.4 4.72 (13:20) 2.22 (13:20) 0 0 0 0 0
24-12-2018 14.3 (14:40) 1.1 (08:00) 7.7 2.22 (15:20) 1.11 (14:00) 0 0 0 0 0
23-12-2018 17.4 (14:00) 1.4 (00:00) 9.4 3.33 (14:10) 1.67 (14:50) 0 0 0 0 0
22-12-2018 17 (14:20) 3.6 (00:00) 10.3 6.67 (12:10) 4.44 (13:20) 0 0 0 0 0
21-12-2018 17 (15:20) 1.5 (01:00) 9.3 7.5 (12:20) 2.78 (12:30) 0 0 0 0 0

Gráficas

Temp. máximas Temp. mínimas Temp. medias Precipitaciones Rachas de viento máximas Velocidades máximas media en intervalos de 10 minutos

Datos horarios

Fecha y hora oficial Temperatura (ºC) Velocidad del viento (km/h) Dirección del viento Racha (km/h) Dirección de racha Precipitación (mm) Presión (hPa) Tendencia (hPa) Humedad (%)
2019-01-19 23:00:00 5.1 0 Calma 2 Oeste 0.6 -- -- 100
2019-01-19 22:00:00 5.2 0 Calma 5 Noroeste 0.2 -- -- 100
2019-01-19 21:00:00 5.4 2 Sur 6 Sudeste 0.2 -- -- 100
2019-01-19 20:00:00 5.4 0 Calma 4 Oeste 0.8 -- -- 100
2019-01-19 19:00:00 5.6 3 Este 5 Este 1.2 -- -- 100
2019-01-19 18:00:00 6 0 Calma 8 Nordeste 1.2 -- -- 100
2019-01-19 17:00:00 6.4 2 Sudeste 4 Oeste 2.4 -- -- 100
2019-01-19 16:00:00 7 2 Sur 4 Sudeste 1.2 -- -- 99
2019-01-19 15:00:00 7.5 2 Sur 7 Oeste 0.6 -- -- 94
2019-01-19 14:00:00 8 2 Sudoeste 7 Noroeste 0 -- -- 88
2019-01-19 13:00:00 7.5 4 Noroeste 7 Noroeste 0 -- -- 91
2019-01-19 12:00:00 5.2 0 Calma 5 Noroeste 0 -- -- 100
2019-01-19 11:00:00 3.2 2 Sudeste 6 Oeste 0 -- -- 100
2019-01-19 10:00:00 0.9 0 Calma 3 Oeste 0 -- -- 100
2019-01-19 09:00:00 0.6 0 Calma 5 Oeste 0 -- -- 100
2019-01-19 08:00:00 1.8 4 Sur 14 Este 0 -- -- 100
2019-01-19 07:00:00 1.5 0 Calma 4 Sudoeste 0 -- -- 100
2019-01-19 06:00:00 2.3 2 Sur 6 Sur 0 -- -- 100
2019-01-19 05:00:00 3.8 4 Sur 7 Sudeste 0.4 -- -- 100
2019-01-19 04:00:00 4.3 0 Calma 3 Sudoeste 0.6 -- -- 100
2019-01-19 03:00:00 4.3 0 Calma 5 Sudeste 0 -- -- 100
2019-01-19 02:00:00 4.4 3 Sudeste 6 Sudeste 0 -- -- 100
2019-01-19 01:00:00 4.4 0 Calma 6 Sur 0.2 -- -- 100
2019-01-19 00:00:00 4.5 2 Sur 6 Sur 0 -- -- 100
2019-01-18 23:00:00 4.6 0 Calma 4 Este 0.2 -- -- 100
2019-01-18 22:00:00 4.9 0 Calma 6 Sudeste 0.2 -- -- 100
2019-01-18 21:00:00 5.2 3 Noroeste 8 Sudeste 0.4 -- -- 96
2019-01-18 20:00:00 5.4 0 Calma 3 Sudeste 0 -- -- 92
2019-01-18 19:00:00 5.8 0 Calma 3 Oeste 0 -- -- 88
2019-01-18 18:00:00 7 0 Calma 5 Noroeste 0 -- -- 83
2019-01-18 17:00:00 8.1 0 Calma 5 Noroeste 0 -- -- 73
2019-01-18 16:00:00 8.3 4 Noroeste 9 Noroeste 0 -- -- 70
2019-01-18 15:00:00 8.1 4 Noroeste 9 Nordeste 0 -- -- 71
2019-01-18 14:00:00 6.9 8 Este 15 Este 0 -- -- 73
2019-01-18 13:00:00 5 0 Calma 4 Este 0 -- -- 94
2019-01-18 12:00:00 3.8 0 Calma 3 Sudoeste 0 -- -- 100
2019-01-18 11:00:00 2.6 0 Calma 3 Sur 0 -- -- 100
2019-01-18 10:00:00 1.1 0 Calma 5 Este 0 -- -- 100
2019-01-18 09:00:00 0.7 2 Este 7 Este 0 -- -- 100
2019-01-18 08:00:00 0.3 0 Calma 4 Nordeste 0 -- -- 100
2019-01-18 07:00:00 0 0 Calma 3 Este 0 -- -- 100
2019-01-18 06:00:00 -0.2 0 Calma 4 Sur 0 -- -- 100
2019-01-18 05:00:00 -0.4 0 Calma 4 Este 0 -- -- 100
2019-01-18 04:00:00 -0.7 0 Calma 4 Sudeste 0 -- -- 100
2019-01-18 03:00:00 -0.2 0 Calma 5 Sur 0 -- -- 100
2019-01-18 02:00:00 0.9 0 Calma 5 Este 0 -- -- 100
2019-01-18 01:00:00 1.3 0 Calma 3 Este 0 -- -- 99
2019-01-18 00:00:00 2.3 0 Calma 4 Sur 0 -- -- 100
2019-01-17 23:00:00 2.7 2 Sudeste 5 Sudeste 0 -- -- 98
2019-01-17 22:00:00 4 3 Este 4 Este 0 -- -- 97
2019-01-17 21:00:00 4.6 0 Calma 9 Noroeste 0 -- -- 95
2019-01-17 20:00:00 5.5 5 Oeste 15 Oeste 0 -- -- 91
2019-01-17 19:00:00 5.8 2 Sudoeste 11 Oeste 0 -- -- 89
2019-01-17 18:00:00 6.3 9 Oeste 20 Oeste 0 -- -- 84
2019-01-17 17:00:00 6.7 6 Oeste 28 Oeste 0.2 -- -- 83
2019-01-17 16:00:00 7.9 12 Oeste 25 Oeste 0 -- -- 74
2019-01-17 15:00:00 9.6 11 Oeste 26 Oeste 0 -- -- 67
2019-01-17 14:00:00 9.2 9 Oeste 26 Oeste 0 -- -- 63
2019-01-17 13:00:00 9.2 10 Oeste 21 Oeste 0 -- -- 66
2019-01-17 12:00:00 7.6 6 Oeste 19 Oeste 0 -- -- 76
2019-01-17 11:00:00 5.3 3 Oeste 5 Noroeste 0 -- -- 100
2019-01-17 10:00:00 3.7 0 Calma 4 Sur 0 -- -- 100
2019-01-17 09:00:00 3.5 0 Calma 4 Oeste 0 -- -- 100
2019-01-17 08:00:00 4.8 5 Sudoeste 24 Oeste 0.4 -- -- 97
2019-01-17 07:00:00 4.4 0 Calma 2 Sur 0 -- -- 100
2019-01-17 06:00:00 4.9 0 Calma 9 Oeste 0 -- -- 100
2019-01-17 05:00:00 5.4 9 Oeste 25 Noroeste 0.4 -- -- 98
2019-01-17 04:00:00 5.3 2 Sudoeste 6 Oeste 0.8 -- -- 100
2019-01-17 03:00:00 5.2 3 Noroeste 10 Oeste 1.2 -- -- 100
2019-01-17 02:00:00 4.6 0 Calma 5 Sur 1 -- -- 100
2019-01-17 01:00:00 4.6 0 Calma 5 Este 0 -- -- 98
2019-01-17 00:00:00 4.4 0 Calma 4 Sudeste 0 -- -- 94
2019-01-16 23:00:00 4.4 0 Calma 4 Sur 0 -- -- 93
2019-01-16 22:00:00 5 0 Calma 6 Sudeste 0 -- -- 89
2019-01-16 21:00:00 6.1 3 Sudeste 10 Este 0 -- -- 86
2019-01-16 20:00:00 6.8 4 Sudeste 14 Nordeste 0 -- -- 77
2019-01-16 19:00:00 7.5 6 Este 13 Nordeste 0 -- -- 74
2019-01-16 18:00:00 8.3 2 Sudeste 6 Este 0 -- -- 76
2019-01-16 17:00:00 9.6 0 Calma 11 Sur 0 -- -- 77
2019-01-16 16:00:00 10.6 3 Sudoeste 5 Sudoeste 0 -- -- 68
2019-01-16 15:00:00 11 3 Sudeste 13 Nordeste 0 -- -- 66
2019-01-16 14:00:00 9.3 6 Sudoeste 14 Oeste 0 -- -- 72
2019-01-16 13:00:00 9.7 5 Oeste 13 Oeste 0 -- -- 74